sensor_id;sensor_type;location;lat;lon;timestamp;P1;durP1;ratioP1;P2;durP2;ratioP2
29788;SDS011;64899;42.660;23.268;2024-01-30T00:02:09;10.45;;;6.00;;
29788;SDS011;64899;42.660;23.268;2024-01-30T00:04:34;9.32;;;5.85;;
29788;SDS011;64899;42.660;23.268;2024-01-30T00:06:59;9.48;;;6.13;;
29788;SDS011;64899;42.660;23.268;2024-01-30T00:09:25;9.13;;;5.63;;
29788;SDS011;64899;42.660;23.268;2024-01-30T00:11:50;13.20;;;6.28;;
29788;SDS011;64899;42.660;23.268;2024-01-30T00:14:16;10.38;;;6.28;;
29788;SDS011;64899;42.660;23.268;2024-01-30T00:16:41;8.50;;;5.85;;
29788;SDS011;64899;42.660;23.268;2024-01-30T00:19:06;11.15;;;6.18;;
29788;SDS011;64899;42.660;23.268;2024-01-30T00:21:33;8.57;;;6.07;;
29788;SDS011;64899;42.660;23.268;2024-01-30T00:23:59;10.88;;;6.45;;
29788;SDS011;64899;42.660;23.268;2024-01-30T00:26:24;9.38;;;5.60;;
29788;SDS011;64899;42.660;23.268;2024-01-30T00:28:49;10.02;;;6.00;;
29788;SDS011;64899;42.660;23.268;2024-01-30T00:31:15;10.48;;;5.78;;
29788;SDS011;64899;42.660;23.268;2024-01-30T00:33:40;9.90;;;5.78;;
29788;SDS011;64899;42.660;23.268;2024-01-30T00:36:06;9.82;;;6.20;;
29788;SDS011;64899;42.660;23.268;2024-01-30T00:38:32;9.90;;;6.38;;
29788;SDS011;64899;42.660;23.268;2024-01-30T00:40:58;10.25;;;6.00;;
29788;SDS011;64899;42.660;23.268;2024-01-30T00:43:23;8.27;;;5.55;;
29788;SDS011;64899;42.660;23.268;2024-01-30T00:45:50;10.32;;;5.88;;
29788;SDS011;64899;42.660;23.268;2024-01-30T00:48:17;8.25;;;5.63;;
29788;SDS011;64899;42.660;23.268;2024-01-30T00:50:42;9.40;;;5.55;;
29788;SDS011;64899;42.660;23.268;2024-01-30T00:53:08;8.85;;;5.60;;
29788;SDS011;64899;42.660;23.268;2024-01-30T00:55:33;12.77;;;5.82;;
29788;SDS011;64899;42.660;23.268;2024-01-30T00:57:58;10.20;;;5.97;;
29788;SDS011;64899;42.660;23.268;2024-01-30T01:00:24;12.88;;;6.65;;
29788;SDS011;64899;42.660;23.268;2024-01-30T01:02:54;8.88;;;5.50;;
29788;SDS011;64899;42.660;23.268;2024-01-30T01:05:22;8.80;;;5.72;;
29788;SDS011;64899;42.660;23.268;2024-01-30T01:07:48;10.13;;;6.15;;
29788;SDS011;64899;42.660;23.268;2024-01-30T01:10:13;11.68;;;6.15;;
29788;SDS011;64899;42.660;23.268;2024-01-30T01:12:40;9.48;;;6.10;;
29788;SDS011;64899;42.660;23.268;2024-01-30T01:15:06;11.75;;;7.55;;
29788;SDS011;64899;42.660;23.268;2024-01-30T01:17:34;8.68;;;5.68;;
29788;SDS011;64899;42.660;23.268;2024-01-30T01:20:00;7.80;;;5.95;;
29788;SDS011;64899;42.660;23.268;2024-01-30T01:22:27;9.15;;;5.95;;
29788;SDS011;64899;42.660;23.268;2024-01-30T01:24:52;16.45;;;6.30;;
29788;SDS011;64899;42.660;23.268;2024-01-30T01:27:18;10.85;;;6.50;;
29788;SDS011;64899;42.660;23.268;2024-01-30T01:29:43;9.98;;;6.10;;
29788;SDS011;64899;42.660;23.268;2024-01-30T01:32:08;9.88;;;6.18;;
29788;SDS011;64899;42.660;23.268;2024-01-30T01:34:34;8.85;;;6.10;;
29788;SDS011;64899;42.660;23.268;2024-01-30T01:36:59;10.50;;;6.07;;
29788;SDS011;64899;42.660;23.268;2024-01-30T01:39:25;8.73;;;6.32;;
29788;SDS011;64899;42.660;23.268;2024-01-30T01:41:50;9.38;;;5.80;;
29788;SDS011;64899;42.660;23.268;2024-01-30T01:44:17;10.02;;;5.60;;
29788;SDS011;64899;42.660;23.268;2024-01-30T01:46:42;9.27;;;6.07;;
29788;SDS011;64899;42.660;23.268;2024-01-30T01:49:08;7.85;;;5.55;;
29788;SDS011;64899;42.660;23.268;2024-01-30T01:51:34;9.13;;;5.30;;
29788;SDS011;64899;42.660;23.268;2024-01-30T01:54:02;8.57;;;5.43;;
29788;SDS011;64899;42.660;23.268;2024-01-30T01:56:28;10.00;;;5.88;;
29788;SDS011;64899;42.660;23.268;2024-01-30T01:58:54;8.93;;;5.05;;
29788;SDS011;64899;42.660;23.268;2024-01-30T02:01:20;9.18;;;5.32;;
29788;SDS011;64899;42.660;23.268;2024-01-30T02:03:46;7.60;;;5.25;;
29788;SDS011;64899;42.660;23.268;2024-01-30T02:06:12;7.72;;;5.30;;
29788;SDS011;64899;42.660;23.268;2024-01-30T02:08:38;9.60;;;5.32;;
29788;SDS011;64899;42.660;23.268;2024-01-30T02:11:04;7.45;;;5.05;;
29788;SDS011;64899;42.660;23.268;2024-01-30T02:13:29;12.40;;;5.78;;
29788;SDS011;64899;42.660;23.268;2024-01-30T02:15:55;8.98;;;5.93;;
29788;SDS011;64899;42.660;23.268;2024-01-30T02:18:20;8.43;;;5.32;;
29788;SDS011;64899;42.660;23.268;2024-01-30T02:20:48;7.80;;;4.95;;
29788;SDS011;64899;42.660;23.268;2024-01-30T02:23:15;7.60;;;5.38;;
29788;SDS011;64899;42.660;23.268;2024-01-30T02:25:41;9.13;;;5.40;;
29788;SDS011;64899;42.660;23.268;2024-01-30T02:28:12;8.35;;;5.60;;
29788;SDS011;64899;42.660;23.268;2024-01-30T02:30:44;11.10;;;5.68;;
29788;SDS011;64899;42.660;23.268;2024-01-30T02:33:09;9.70;;;6.00;;
29788;SDS011;64899;42.660;23.268;2024-01-30T02:35:35;9.13;;;5.75;;
29788;SDS011;64899;42.660;23.268;2024-01-30T02:38:00;10.23;;;6.07;;
29788;SDS011;64899;42.660;23.268;2024-01-30T02:40:25;9.35;;;6.05;;
29788;SDS011;64899;42.660;23.268;2024-01-30T02:42:51;10.65;;;5.57;;
29788;SDS011;64899;42.660;23.268;2024-01-30T02:45:16;8.48;;;5.63;;
29788;SDS011;64899;42.660;23.268;2024-01-30T02:47:42;7.97;;;5.10;;
29788;SDS011;64899;42.660;23.268;2024-01-30T02:50:07;7.85;;;5.57;;
29788;SDS011;64899;42.660;23.268;2024-01-30T02:52:33;11.90;;;6.53;;
29788;SDS011;64899;42.660;23.268;2024-01-30T02:54:59;8.07;;;5.10;;
29788;SDS011;64899;42.660;23.268;2024-01-30T02:57:24;8.35;;;5.85;;
29788;SDS011;64899;42.660;23.268;2024-01-30T02:59:49;9.20;;;5.28;;
29788;SDS011;64899;42.660;23.268;2024-01-30T03:02:15;8.23;;;5.60;;
29788;SDS011;64899;42.660;23.268;2024-01-30T03:04:41;9.48;;;5.85;;
29788;SDS011;64899;42.660;23.268;2024-01-30T03:07:07;7.55;;;4.75;;
29788;SDS011;64899;42.660;23.268;2024-01-30T03:09:32;7.95;;;5.43;;
29788;SDS011;64899;42.660;23.268;2024-01-30T03:11:58;8.00;;;4.88;;
29788;SDS011;64899;42.660;23.268;2024-01-30T03:14:23;6.57;;;4.43;;
29788;SDS011;64899;42.660;23.268;2024-01-30T03:16:49;8.15;;;5.00;;
29788;SDS011;64899;42.660;23.268;2024-01-30T03:19:14;10.32;;;4.70;;
29788;SDS011;64899;42.660;23.268;2024-01-30T03:21:39;8.18;;;5.30;;
29788;SDS011;64899;42.660;23.268;2024-01-30T03:24:05;7.20;;;4.68;;
29788;SDS011;64899;42.660;23.268;2024-01-30T03:26:30;6.78;;;4.60;;
29788;SDS011;64899;42.660;23.268;2024-01-30T03:28:56;8.57;;;4.85;;
29788;SDS011;64899;42.660;23.268;2024-01-30T03:31:21;10.02;;;5.20;;
29788;SDS011;64899;42.660;23.268;2024-01-30T03:33:46;8.75;;;4.72;;
29788;SDS011;64899;42.660;23.268;2024-01-30T03:36:12;8.45;;;4.97;;
29788;SDS011;64899;42.660;23.268;2024-01-30T03:38:37;6.75;;;4.68;;
29788;SDS011;64899;42.660;23.268;2024-01-30T03:41:03;6.20;;;4.72;;
29788;SDS011;64899;42.660;23.268;2024-01-30T03:43:28;9.38;;;5.00;;
29788;SDS011;64899;42.660;23.268;2024-01-30T03:45:54;7.50;;;4.50;;
29788;SDS011;64899;42.660;23.268;2024-01-30T03:48:20;6.75;;;4.18;;
29788;SDS011;64899;42.660;23.268;2024-01-30T03:50:46;8.00;;;4.38;;
29788;SDS011;64899;42.660;23.268;2024-01-30T03:53:11;6.00;;;4.50;;
29788;SDS011;64899;42.660;23.268;2024-01-30T03:55:37;5.85;;;3.97;;
29788;SDS011;64899;42.660;23.268;2024-01-30T03:58:02;7.28;;;4.40;;
29788;SDS011;64899;42.660;23.268;2024-01-30T04:00:27;6.75;;;4.40;;
29788;SDS011;64899;42.660;23.268;2024-01-30T04:02:53;7.50;;;4.15;;
29788;SDS011;64899;42.660;23.268;2024-01-30T04:05:18;7.07;;;4.28;;
29788;SDS011;64899;42.660;23.268;2024-01-30T04:07:44;5.95;;;3.85;;
29788;SDS011;64899;42.660;23.268;2024-01-30T04:10:09;5.50;;;3.83;;
29788;SDS011;64899;42.660;23.268;2024-01-30T04:12:35;6.35;;;3.92;;
29788;SDS011;64899;42.660;23.268;2024-01-30T04:15:01;5.32;;;3.50;;
29788;SDS011;64899;42.660;23.268;2024-01-30T04:17:26;5.20;;;3.85;;
29788;SDS011;64899;42.660;23.268;2024-01-30T04:19:53;5.80;;;3.78;;
29788;SDS011;64899;42.660;23.268;2024-01-30T04:22:19;6.78;;;3.88;;
29788;SDS011;64899;42.660;23.268;2024-01-30T04:24:44;6.13;;;4.20;;
29788;SDS011;64899;42.660;23.268;2024-01-30T04:27:10;7.18;;;4.20;;
29788;SDS011;64899;42.660;23.268;2024-01-30T04:29:35;5.95;;;4.10;;
29788;SDS011;64899;42.660;23.268;2024-01-30T04:32:00;6.93;;;4.13;;
29788;SDS011;64899;42.660;23.268;2024-01-30T04:34:26;7.05;;;4.22;;
29788;SDS011;64899;42.660;23.268;2024-01-30T04:36:51;6.68;;;4.20;;
29788;SDS011;64899;42.660;23.268;2024-01-30T04:39:17;7.45;;;3.95;;
29788;SDS011;64899;42.660;23.268;2024-01-30T04:41:42;7.50;;;4.40;;
29788;SDS011;64899;42.660;23.268;2024-01-30T04:44:07;10.15;;;3.97;;
29788;SDS011;64899;42.660;23.268;2024-01-30T04:46:33;9.05;;;4.30;;
29788;SDS011;64899;42.660;23.268;2024-01-30T04:49:01;5.75;;;4.05;;
29788;SDS011;64899;42.660;23.268;2024-01-30T04:51:26;6.10;;;4.18;;
29788;SDS011;64899;42.660;23.268;2024-01-30T04:53:51;8.32;;;4.30;;
29788;SDS011;64899;42.660;23.268;2024-01-30T04:56:17;6.32;;;4.10;;
29788;SDS011;64899;42.660;23.268;2024-01-30T04:58:42;7.20;;;4.20;;
29788;SDS011;64899;42.660;23.268;2024-01-30T05:01:08;8.73;;;4.82;;
29788;SDS011;64899;42.660;23.268;2024-01-30T05:03:34;6.30;;;4.30;;
29788;SDS011;64899;42.660;23.268;2024-01-30T05:06:00;8.15;;;5.03;;
29788;SDS011;64899;42.660;23.268;2024-01-30T05:08:25;8.18;;;4.55;;
29788;SDS011;64899;42.660;23.268;2024-01-30T05:10:50;8.98;;;4.45;;
29788;SDS011;64899;42.660;23.268;2024-01-30T05:13:16;7.30;;;4.72;;
29788;SDS011;64899;42.660;23.268;2024-01-30T05:15:41;8.50;;;4.72;;
29788;SDS011;64899;42.660;23.268;2024-01-30T05:18:07;9.98;;;5.15;;
29788;SDS011;64899;42.660;23.268;2024-01-30T05:20:32;6.50;;;4.72;;
29788;SDS011;64899;42.660;23.268;2024-01-30T05:22:57;14.73;;;5.22;;
29788;SDS011;64899;42.660;23.268;2024-01-30T05:25:23;6.82;;;4.07;;
29788;SDS011;64899;42.660;23.268;2024-01-30T05:27:48;6.90;;;4.57;;
29788;SDS011;64899;42.660;23.268;2024-01-30T05:30:14;10.70;;;4.82;;
29788;SDS011;64899;42.660;23.268;2024-01-30T05:32:40;10.63;;;4.88;;
29788;SDS011;64899;42.660;23.268;2024-01-30T05:35:05;10.13;;;5.53;;
29788;SDS011;64899;42.660;23.268;2024-01-30T05:37:33;6.95;;;4.68;;
29788;SDS011;64899;42.660;23.268;2024-01-30T05:39:58;9.65;;;4.97;;
29788;SDS011;64899;42.660;23.268;2024-01-30T05:42:23;11.50;;;5.60;;
29788;SDS011;64899;42.660;23.268;2024-01-30T05:44:49;7.85;;;5.03;;
29788;SDS011;64899;42.660;23.268;2024-01-30T05:47:15;9.40;;;5.18;;
29788;SDS011;64899;42.660;23.268;2024-01-30T05:49:40;9.68;;;5.28;;
29788;SDS011;64899;42.660;23.268;2024-01-30T05:52:07;11.15;;;5.47;;
29788;SDS011;64899;42.660;23.268;2024-01-30T05:54:32;7.97;;;5.05;;
29788;SDS011;64899;42.660;23.268;2024-01-30T05:56:57;9.23;;;5.32;;
29788;SDS011;64899;42.660;23.268;2024-01-30T05:59:23;10.73;;;5.50;;
29788;SDS011;64899;42.660;23.268;2024-01-30T06:01:48;9.75;;;5.32;;
29788;SDS011;64899;42.660;23.268;2024-01-30T06:04:14;10.13;;;5.25;;
29788;SDS011;64899;42.660;23.268;2024-01-30T06:06:40;10.00;;;5.18;;
29788;SDS011;64899;42.660;23.268;2024-01-30T06:09:06;10.02;;;5.07;;
29788;SDS011;64899;42.660;23.268;2024-01-30T06:11:34;8.10;;;4.90;;
29788;SDS011;64899;42.660;23.268;2024-01-30T06:13:59;10.15;;;5.25;;
29788;SDS011;64899;42.660;23.268;2024-01-30T06:16:24;13.50;;;5.45;;
29788;SDS011;64899;42.660;23.268;2024-01-30T06:18:54;10.38;;;5.47;;
29788;SDS011;64899;42.660;23.268;2024-01-30T06:21:20;10.40;;;5.07;;
29788;SDS011;64899;42.660;23.268;2024-01-30T06:23:45;13.07;;;6.07;;
29788;SDS011;64899;42.660;23.268;2024-01-30T06:26:11;12.07;;;6.07;;
29788;SDS011;64899;42.660;23.268;2024-01-30T06:28:36;11.30;;;5.05;;
29788;SDS011;64899;42.660;23.268;2024-01-30T06:31:01;13.88;;;6.88;;
29788;SDS011;64899;42.660;23.268;2024-01-30T06:33:27;12.60;;;6.53;;
29788;SDS011;64899;42.660;23.268;2024-01-30T06:35:52;13.52;;;6.15;;
29788;SDS011;64899;42.660;23.268;2024-01-30T06:38:18;11.57;;;5.50;;
29788;SDS011;64899;42.660;23.268;2024-01-30T06:40:43;11.70;;;5.60;;
29788;SDS011;64899;42.660;23.268;2024-01-30T06:43:08;10.75;;;6.03;;
29788;SDS011;64899;42.660;23.268;2024-01-30T06:45:34;12.07;;;6.18;;
29788;SDS011;64899;42.660;23.268;2024-01-30T06:48:00;13.98;;;6.18;;
29788;SDS011;64899;42.660;23.268;2024-01-30T06:50:25;11.27;;;5.97;;
29788;SDS011;64899;42.660;23.268;2024-01-30T06:52:51;17.17;;;6.00;;
29788;SDS011;64899;42.660;23.268;2024-01-30T06:55:16;15.55;;;6.40;;
29788;SDS011;64899;42.660;23.268;2024-01-30T06:57:43;14.52;;;6.05;;
29788;SDS011;64899;42.660;23.268;2024-01-30T07:00:08;10.35;;;5.93;;
29788;SDS011;64899;42.660;23.268;2024-01-30T07:02:34;11.27;;;6.15;;
29788;SDS011;64899;42.660;23.268;2024-01-30T07:04:59;13.00;;;6.00;;
29788;SDS011;64899;42.660;23.268;2024-01-30T07:07:25;18.08;;;5.60;;
29788;SDS011;64899;42.660;23.268;2024-01-30T07:09:50;10.77;;;5.05;;
29788;SDS011;64899;42.660;23.268;2024-01-30T07:12:21;8.80;;;4.90;;
29788;SDS011;64899;42.660;23.268;2024-01-30T07:14:48;10.90;;;5.47;;
29788;SDS011;64899;42.660;23.268;2024-01-30T07:17:13;9.63;;;5.43;;
29788;SDS011;64899;42.660;23.268;2024-01-30T07:19:39;12.10;;;5.65;;
29788;SDS011;64899;42.660;23.268;2024-01-30T07:22:04;12.65;;;5.45;;
29788;SDS011;64899;42.660;23.268;2024-01-30T07:24:29;11.20;;;5.32;;
29788;SDS011;64899;42.660;23.268;2024-01-30T07:26:55;9.13;;;5.32;;
29788;SDS011;64899;42.660;23.268;2024-01-30T07:29:20;10.52;;;4.57;;
29788;SDS011;64899;42.660;23.268;2024-01-30T07:31:46;11.50;;;3.88;;
29788;SDS011;64899;42.660;23.268;2024-01-30T07:34:12;5.05;;;3.40;;
29788;SDS011;64899;42.660;23.268;2024-01-30T07:36:37;4.95;;;3.15;;
29788;SDS011;64899;42.660;23.268;2024-01-30T07:39:03;6.70;;;3.40;;
29788;SDS011;64899;42.660;23.268;2024-01-30T07:41:28;4.82;;;3.35;;
29788;SDS011;64899;42.660;23.268;2024-01-30T07:43:54;7.22;;;3.40;;
29788;SDS011;64899;42.660;23.268;2024-01-30T07:46:19;7.90;;;4.05;;
29788;SDS011;64899;42.660;23.268;2024-01-30T07:48:44;6.40;;;3.63;;
29788;SDS011;64899;42.660;23.268;2024-01-30T07:51:10;5.03;;;3.20;;
29788;SDS011;64899;42.660;23.268;2024-01-30T07:53:35;9.20;;;3.50;;
29788;SDS011;64899;42.660;23.268;2024-01-30T07:56:00;5.75;;;3.40;;
29788;SDS011;64899;42.660;23.268;2024-01-30T07:58:26;9.30;;;3.58;;
29788;SDS011;64899;42.660;23.268;2024-01-30T08:00:52;5.97;;;3.70;;
29788;SDS011;64899;42.660;23.268;2024-01-30T08:03:18;7.45;;;3.00;;
29788;SDS011;64899;42.660;23.268;2024-01-30T08:05:44;5.25;;;3.33;;
29788;SDS011;64899;42.660;23.268;2024-01-30T08:08:09;4.75;;;3.50;;
29788;SDS011;64899;42.660;23.268;2024-01-30T08:10:35;8.15;;;3.70;;
29788;SDS011;64899;42.660;23.268;2024-01-30T08:13:01;6.43;;;3.70;;
29788;SDS011;64899;42.660;23.268;2024-01-30T08:15:27;6.20;;;3.85;;
29788;SDS011;64899;42.660;23.268;2024-01-30T08:17:52;5.78;;;2.75;;
29788;SDS011;64899;42.660;23.268;2024-01-30T08:20:22;4.60;;;3.00;;
29788;SDS011;64899;42.660;23.268;2024-01-30T08:22:48;5.57;;;3.03;;
29788;SDS011;64899;42.660;23.268;2024-01-30T08:25:13;5.32;;;3.58;;
29788;SDS011;64899;42.660;23.268;2024-01-30T08:27:39;6.55;;;3.72;;
29788;SDS011;64899;42.660;23.268;2024-01-30T08:30:07;6.07;;;3.92;;
29788;SDS011;64899;42.660;23.268;2024-01-30T08:32:33;6.53;;;3.47;;
29788;SDS011;64899;42.660;23.268;2024-01-30T08:34:59;4.57;;;3.50;;
29788;SDS011;64899;42.660;23.268;2024-01-30T08:37:24;8.60;;;4.10;;
29788;SDS011;64899;42.660;23.268;2024-01-30T08:39:50;5.88;;;3.67;;
29788;SDS011;64899;42.660;23.268;2024-01-30T08:42:15;9.60;;;3.78;;
29788;SDS011;64899;42.660;23.268;2024-01-30T08:44:43;7.05;;;4.00;;
29788;SDS011;64899;42.660;23.268;2024-01-30T08:47:08;8.10;;;3.90;;
29788;SDS011;64899;42.660;23.268;2024-01-30T08:49:34;7.43;;;4.20;;
29788;SDS011;64899;42.660;23.268;2024-01-30T08:51:59;5.35;;;3.70;;
29788;SDS011;64899;42.660;23.268;2024-01-30T08:54:25;6.63;;;3.67;;
29788;SDS011;64899;42.660;23.268;2024-01-30T08:56:50;7.05;;;3.60;;
29788;SDS011;64899;42.660;23.268;2024-01-30T08:59:17;6.20;;;4.18;;
29788;SDS011;64899;42.660;23.268;2024-01-30T09:01:42;6.40;;;4.45;;
29788;SDS011;64899;42.660;23.268;2024-01-30T09:04:08;6.38;;;3.47;;
29788;SDS011;64899;42.660;23.268;2024-01-30T09:06:33;8.20;;;3.78;;
29788;SDS011;64899;42.660;23.268;2024-01-30T09:08:58;11.90;;;4.40;;
29788;SDS011;64899;42.660;23.268;2024-01-30T09:11:24;5.80;;;4.53;;
29788;SDS011;64899;42.660;23.268;2024-01-30T09:13:49;8.90;;;4.95;;
29788;SDS011;64899;42.660;23.268;2024-01-30T09:16:15;7.72;;;4.50;;
29788;SDS011;64899;42.660;23.268;2024-01-30T09:18:41;7.15;;;4.60;;
29788;SDS011;64899;42.660;23.268;2024-01-30T09:21:07;9.15;;;4.57;;
29788;SDS011;64899;42.660;23.268;2024-01-30T09:23:32;11.30;;;4.47;;
29788;SDS011;64899;42.660;23.268;2024-01-30T09:25:58;5.88;;;4.57;;
29788;SDS011;64899;42.660;23.268;2024-01-30T09:28:23;8.50;;;4.65;;
29788;SDS011;64899;42.660;23.268;2024-01-30T09:30:49;10.25;;;4.38;;
29788;SDS011;64899;42.660;23.268;2024-01-30T09:33:15;7.18;;;4.03;;
29788;SDS011;64899;42.660;23.268;2024-01-30T09:35:40;9.43;;;4.18;;
29788;SDS011;64899;42.660;23.268;2024-01-30T09:38:05;7.40;;;3.75;;
29788;SDS011;64899;42.660;23.268;2024-01-30T09:40:31;5.47;;;3.95;;
29788;SDS011;64899;42.660;23.268;2024-01-30T09:42:56;6.43;;;4.07;;
29788;SDS011;64899;42.660;23.268;2024-01-30T09:45:25;12.63;;;4.25;;
29788;SDS011;64899;42.660;23.268;2024-01-30T09:47:51;6.43;;;4.38;;
29788;SDS011;64899;42.660;23.268;2024-01-30T09:50:17;7.63;;;4.07;;
29788;SDS011;64899;42.660;23.268;2024-01-30T09:52:42;5.45;;;3.88;;
29788;SDS011;64899;42.660;23.268;2024-01-30T09:55:09;8.25;;;4.10;;
29788;SDS011;64899;42.660;23.268;2024-01-30T09:57:34;6.47;;;4.40;;
29788;SDS011;64899;42.660;23.268;2024-01-30T10:00:00;5.75;;;4.00;;
29788;SDS011;64899;42.660;23.268;2024-01-30T10:02:26;7.30;;;4.47;;
29788;SDS011;64899;42.660;23.268;2024-01-30T10:04:51;7.43;;;4.57;;
29788;SDS011;64899;42.660;23.268;2024-01-30T10:07:17;6.60;;;4.28;;
29788;SDS011;64899;42.660;23.268;2024-01-30T10:09:43;10.27;;;3.90;;
29788;SDS011;64899;42.660;23.268;2024-01-30T10:12:09;6.45;;;3.58;;
29788;SDS011;64899;42.660;23.268;2024-01-30T10:14:38;8.15;;;4.10;;
29788;SDS011;64899;42.660;23.268;2024-01-30T10:17:04;6.22;;;3.78;;
29788;SDS011;64899;42.660;23.268;2024-01-30T10:19:30;6.43;;;3.45;;
29788;SDS011;64899;42.660;23.268;2024-01-30T10:21:56;7.63;;;4.07;;
29788;SDS011;64899;42.660;23.268;2024-01-30T10:24:24;8.50;;;4.72;;
29788;SDS011;64899;42.660;23.268;2024-01-30T10:26:50;6.82;;;4.28;;
29788;SDS011;64899;42.660;23.268;2024-01-30T10:29:16;7.85;;;4.10;;
29788;SDS011;64899;42.660;23.268;2024-01-30T10:31:42;12.07;;;4.63;;
29788;SDS011;64899;42.660;23.268;2024-01-30T10:34:07;7.72;;;4.22;;
29788;SDS011;64899;42.660;23.268;2024-01-30T10:36:33;9.73;;;4.40;;
29788;SDS011;64899;42.660;23.268;2024-01-30T10:39:07;6.47;;;4.60;;
29788;SDS011;64899;42.660;23.268;2024-01-30T10:41:35;7.65;;;4.00;;
29788;SDS011;64899;42.660;23.268;2024-01-30T10:44:08;6.40;;;4.10;;
29788;SDS011;64899;42.660;23.268;2024-01-30T10:46:34;8.40;;;4.05;;
29788;SDS011;64899;42.660;23.268;2024-01-30T10:49:00;6.85;;;4.10;;
29788;SDS011;64899;42.660;23.268;2024-01-30T10:51:26;7.20;;;4.82;;
29788;SDS011;64899;42.660;23.268;2024-01-30T10:53:52;6.70;;;3.75;;
29788;SDS011;64899;42.660;23.268;2024-01-30T10:56:20;9.00;;;4.35;;
29788;SDS011;64899;42.660;23.268;2024-01-30T10:58:46;10.88;;;3.88;;
29788;SDS011;64899;42.660;23.268;2024-01-30T11:01:12;5.60;;;3.53;;
29788;SDS011;64899;42.660;23.268;2024-01-30T11:03:38;6.45;;;4.22;;
29788;SDS011;64899;42.660;23.268;2024-01-30T11:06:04;5.75;;;4.45;;
29788;SDS011;64899;42.660;23.268;2024-01-30T11:08:31;21.02;;;4.55;;
29788;SDS011;64899;42.660;23.268;2024-01-30T11:10:57;8.38;;;4.57;;
29788;SDS011;64899;42.660;23.268;2024-01-30T11:13:27;5.55;;;3.60;;
29788;SDS011;64899;42.660;23.268;2024-01-30T11:15:54;6.25;;;3.55;;
29788;SDS011;64899;42.660;23.268;2024-01-30T11:18:23;5.25;;;3.70;;
29788;SDS011;64899;42.660;23.268;2024-01-30T11:20:51;7.07;;;4.03;;
29788;SDS011;64899;42.660;23.268;2024-01-30T11:23:16;5.40;;;3.55;;
29788;SDS011;64899;42.660;23.268;2024-01-30T11:25:43;4.85;;;3.70;;
29788;SDS011;64899;42.660;23.268;2024-01-30T11:28:16;6.97;;;4.28;;
29788;SDS011;64899;42.660;23.268;2024-01-30T11:30:42;8.85;;;3.78;;
29788;SDS011;64899;42.660;23.268;2024-01-30T11:33:08;7.85;;;3.58;;
29788;SDS011;64899;42.660;23.268;2024-01-30T11:35:37;10.80;;;3.35;;
29788;SDS011;64899;42.660;23.268;2024-01-30T11:38:04;5.47;;;3.30;;
29788;SDS011;64899;42.660;23.268;2024-01-30T11:40:31;4.50;;;3.38;;
29788;SDS011;64899;42.660;23.268;2024-01-30T11:42:59;6.47;;;3.60;;
29788;SDS011;64899;42.660;23.268;2024-01-30T11:45:26;5.65;;;3.50;;
29788;SDS011;64899;42.660;23.268;2024-01-30T11:47:52;6.07;;;3.50;;
29788;SDS011;64899;42.660;23.268;2024-01-30T11:50:18;6.20;;;3.83;;
29788;SDS011;64899;42.660;23.268;2024-01-30T11:52:43;6.10;;;3.40;;
29788;SDS011;64899;42.660;23.268;2024-01-30T11:55:09;4.63;;;3.75;;
29788;SDS011;64899;42.660;23.268;2024-01-30T11:57:34;7.47;;;3.78;;
29788;SDS011;64899;42.660;23.268;2024-01-30T12:00:02;11.40;;;3.35;;
29788;SDS011;64899;42.660;23.268;2024-01-30T12:02:29;9.98;;;3.72;;
29788;SDS011;64899;42.660;23.268;2024-01-30T12:04:55;5.93;;;3.95;;
29788;SDS011;64899;42.660;23.268;2024-01-30T12:07:20;7.80;;;3.60;;
29788;SDS011;64899;42.660;23.268;2024-01-30T12:09:52;4.63;;;3.40;;
29788;SDS011;64899;42.660;23.268;2024-01-30T12:12:19;6.38;;;3.80;;
29788;SDS011;64899;42.660;23.268;2024-01-30T12:14:46;6.32;;;3.85;;
29788;SDS011;64899;42.660;23.268;2024-01-30T12:17:11;10.65;;;4.00;;
29788;SDS011;64899;42.660;23.268;2024-01-30T12:20:02;5.35;;;3.47;;
29788;SDS011;64899;42.660;23.268;2024-01-30T12:22:43;5.55;;;3.33;;
29788;SDS011;64899;42.660;23.268;2024-01-30T12:25:16;5.77;;;4.17;;
29788;SDS011;64899;42.660;23.268;2024-01-30T12:27:43;4.85;;;3.20;;
29788;SDS011;64899;42.660;23.268;2024-01-30T12:30:10;4.07;;;3.35;;
29788;SDS011;64899;42.660;23.268;2024-01-30T12:32:36;5.63;;;3.40;;
29788;SDS011;64899;42.660;23.268;2024-01-30T12:35:10;7.15;;;3.58;;
29788;SDS011;64899;42.660;23.268;2024-01-30T12:37:38;6.60;;;3.67;;
29788;SDS011;64899;42.660;23.268;2024-01-30T12:40:04;3.95;;;3.42;;
29788;SDS011;64899;42.660;23.268;2024-01-30T12:42:31;6.68;;;3.38;;
29788;SDS011;64899;42.660;23.268;2024-01-30T12:44:59;10.43;;;3.72;;
29788;SDS011;64899;42.660;23.268;2024-01-30T12:47:25;7.25;;;3.83;;
29788;SDS011;64899;42.660;23.268;2024-01-30T12:49:51;7.30;;;3.40;;
29788;SDS011;64899;42.660;23.268;2024-01-30T12:52:19;10.25;;;3.67;;
29788;SDS011;64899;42.660;23.268;2024-01-30T12:54:46;9.45;;;4.15;;
29788;SDS011;64899;42.660;23.268;2024-01-30T12:57:11;5.47;;;4.13;;
29788;SDS011;64899;42.660;23.268;2024-01-30T12:59:37;5.60;;;4.20;;
29788;SDS011;64899;42.660;23.268;2024-01-30T13:02:02;4.47;;;3.50;;
29788;SDS011;64899;42.660;23.268;2024-01-30T13:04:28;6.20;;;3.78;;
29788;SDS011;64899;42.660;23.268;2024-01-30T13:06:54;6.28;;;3.75;;
29788;SDS011;64899;42.660;23.268;2024-01-30T13:09:19;4.65;;;4.03;;
29788;SDS011;64899;42.660;23.268;2024-01-30T13:11:48;5.90;;;4.15;;
29788;SDS011;64899;42.660;23.268;2024-01-30T13:14:14;6.72;;;4.00;;
29788;SDS011;64899;42.660;23.268;2024-01-30T13:16:40;5.68;;;4.05;;
29788;SDS011;64899;42.660;23.268;2024-01-30T13:19:05;6.82;;;4.13;;
29788;SDS011;64899;42.660;23.268;2024-01-30T13:21:31;4.72;;;3.88;;
29788;SDS011;64899;42.660;23.268;2024-01-30T13:23:56;7.40;;;3.70;;
29788;SDS011;64899;42.660;23.268;2024-01-30T13:26:21;4.93;;;4.15;;
29788;SDS011;64899;42.660;23.268;2024-01-30T13:28:47;5.82;;;4.30;;
29788;SDS011;64899;42.660;23.268;2024-01-30T13:31:13;4.32;;;3.55;;
29788;SDS011;64899;42.660;23.268;2024-01-30T13:33:39;6.32;;;3.83;;
29788;SDS011;64899;42.660;23.268;2024-01-30T13:36:05;5.15;;;4.20;;
29788;SDS011;64899;42.660;23.268;2024-01-30T13:38:31;5.90;;;4.15;;
29788;SDS011;64899;42.660;23.268;2024-01-30T13:40:56;4.40;;;3.88;;
29788;SDS011;64899;42.660;23.268;2024-01-30T13:43:21;7.38;;;4.10;;
29788;SDS011;64899;42.660;23.268;2024-01-30T13:45:47;4.25;;;3.60;;
29788;SDS011;64899;42.660;23.268;2024-01-30T13:48:12;6.60;;;4.07;;
29788;SDS011;64899;42.660;23.268;2024-01-30T13:50:38;6.30;;;3.90;;
29788;SDS011;64899;42.660;23.268;2024-01-30T13:53:03;7.90;;;4.70;;
29788;SDS011;64899;42.660;23.268;2024-01-30T13:55:31;9.68;;;4.70;;
29788;SDS011;64899;42.660;23.268;2024-01-30T13:57:57;6.32;;;4.35;;
29788;SDS011;64899;42.660;23.268;2024-01-30T14:00:22;6.78;;;4.18;;
29788;SDS011;64899;42.660;23.268;2024-01-30T14:02:48;9.07;;;4.53;;
29788;SDS011;64899;42.660;23.268;2024-01-30T14:05:13;6.78;;;4.43;;
29788;SDS011;64899;42.660;23.268;2024-01-30T14:07:39;5.03;;;3.60;;
29788;SDS011;64899;42.660;23.268;2024-01-30T14:10:05;4.75;;;3.95;;
29788;SDS011;64899;42.660;23.268;2024-01-30T14:12:31;5.22;;;4.15;;
29788;SDS011;64899;42.660;23.268;2024-01-30T14:14:57;5.10;;;4.03;;
29788;SDS011;64899;42.660;23.268;2024-01-30T14:17:22;5.93;;;4.53;;
29788;SDS011;64899;42.660;23.268;2024-01-30T14:19:47;5.10;;;4.07;;
29788;SDS011;64899;42.660;23.268;2024-01-30T14:22:13;8.38;;;4.68;;
29788;SDS011;64899;42.660;23.268;2024-01-30T14:24:38;9.63;;;4.47;;